Terminal Aerodrome Forecast
Issued by NWS

Home | Current Version | Previous Version | Text Only | Print | Product List | Glossary On
Versions: 1 2 3 4 5 6 7 8 9 10 11 12 13 14 15 16 17
000
FTUS44 KOUN 282322
TAFCSM
TAF
KCSM 282322Z 2900/2924 10013KT P6SM SCT050 BKN250
     FM290400 10012KT P6SM OVC050
      TEMPO 2909/2912 4SM -TSRA BR OVC020CB
     FM291200 08012G17KT 4SM -TSRA BR OVC008CB
     FM291600 12013KT P6SM BKN025
     FM292100 14014G20KT P6SM BKN040=

USA.gov is the U.S. government's official web portal to all federal, state and local government web resources and services.